sensor_id;sensor_type;location;lat;lon;timestamp;temperature;humidity
67194;DHT22;54121;53.508;49.422;2022-08-19T00:00:49;20.60;30.00
67194;DHT22;54121;53.508;49.422;2022-08-19T00:03:16;20.50;30.00
67194;DHT22;54121;53.508;49.422;2022-08-19T00:05:43;20.50;30.00
67194;DHT22;54121;53.508;49.422;2022-08-19T00:08:11;20.50;30.00
67194;DHT22;54121;53.508;49.422;2022-08-19T00:10:38;20.30;30.00
67194;DHT22;54121;53.508;49.422;2022-08-19T00:13:04;20.30;30.00
67194;DHT22;54121;53.508;49.422;2022-08-19T00:15:31;20.20;30.10
67194;DHT22;54121;53.508;49.422;2022-08-19T00:17:58;20.00;30.40
67194;DHT22;54121;53.508;49.422;2022-08-19T00:20:24;20.10;30.10
67194;DHT22;54121;53.508;49.422;2022-08-19T00:22:51;19.90;30.20
67194;DHT22;54121;53.508;49.422;2022-08-19T00:25:18;19.90;30.00
67194;DHT22;54121;53.508;49.422;2022-08-19T00:27:44;20.00;30.00
67194;DHT22;54121;53.508;49.422;2022-08-19T00:30:11;20.10;29.90
67194;DHT22;54121;53.508;49.422;2022-08-19T00:32:38;20.20;29.80
67194;DHT22;54121;53.508;49.422;2022-08-19T00:35:06;20.10;29.70
67194;DHT22;54121;53.508;49.422;2022-08-19T00:37:32;19.80;29.90
67194;DHT22;54121;53.508;49.422;2022-08-19T00:40:00;19.80;30.00
67194;DHT22;54121;53.508;49.422;2022-08-19T00:42:28;19.90;29.90
67194;DHT22;54121;53.508;49.422;2022-08-19T00:44:54;19.80;30.00
67194;DHT22;54121;53.508;49.422;2022-08-19T00:47:21;19.80;29.90
67194;DHT22;54121;53.508;49.422;2022-08-19T00:49:53;19.70;30.00
67194;DHT22;54121;53.508;49.422;2022-08-19T00:52:38;19.80;29.80
67194;DHT22;54121;53.508;49.422;2022-08-19T00:55:07;19.80;29.70
67194;DHT22;54121;53.508;49.422;2022-08-19T00:57:40;19.70;29.90
67194;DHT22;54121;53.508;49.422;2022-08-19T01:00:11;19.60;30.00
67194;DHT22;54121;53.508;49.422;2022-08-19T01:02:41;19.60;30.10
67194;DHT22;54121;53.508;49.422;2022-08-19T01:05:14;19.60;30.10
67194;DHT22;54121;53.508;49.422;2022-08-19T01:07:41;19.60;29.90
67194;DHT22;54121;53.508;49.422;2022-08-19T01:10:11;19.60;29.80
67194;DHT22;54121;53.508;49.422;2022-08-19T01:12:39;19.40;30.20
67194;DHT22;54121;53.508;49.422;2022-08-19T01:15:08;19.60;30.00
67194;DHT22;54121;53.508;49.422;2022-08-19T01:17:36;19.40;30.00
67194;DHT22;54121;53.508;49.422;2022-08-19T01:20:05;19.60;29.90
67194;DHT22;54121;53.508;49.422;2022-08-19T01:22:44;19.50;30.00
67194;DHT22;54121;53.508;49.422;2022-08-19T01:25:16;19.60;29.90
67194;DHT22;54121;53.508;49.422;2022-08-19T01:27:47;19.50;30.00
67194;DHT22;54121;53.508;49.422;2022-08-19T01:30:20;19.50;30.00
67194;DHT22;54121;53.508;49.422;2022-08-19T01:32:49;19.50;29.90
67194;DHT22;54121;53.508;49.422;2022-08-19T01:35:16;19.60;29.90
67194;DHT22;54121;53.508;49.422;2022-08-19T01:37:59;19.50;29.90
67194;DHT22;54121;53.508;49.422;2022-08-19T01:40:29;19.50;29.80
67194;DHT22;54121;53.508;49.422;2022-08-19T01:42:57;19.50;30.00
67194;DHT22;54121;53.508;49.422;2022-08-19T01:45:25;19.40;30.00
67194;DHT22;54121;53.508;49.422;2022-08-19T01:47:53;19.30;30.00
67194;DHT22;54121;53.508;49.422;2022-08-19T01:50:21;19.30;30.20
67194;DHT22;54121;53.508;49.422;2022-08-19T01:52:47;19.40;30.00
67194;DHT22;54121;53.508;49.422;2022-08-19T01:55:17;19.20;30.00
67194;DHT22;54121;53.508;49.422;2022-08-19T01:57:48;19.40;30.00
67194;DHT22;54121;53.508;49.422;2022-08-19T02:00:18;19.30;30.00
67194;DHT22;54121;53.508;49.422;2022-08-19T02:02:45;19.20;30.00
67194;DHT22;54121;53.508;49.422;2022-08-19T02:05:12;19.40;29.90
67194;DHT22;54121;53.508;49.422;2022-08-19T02:07:40;19.60;29.80
67194;DHT22;54121;53.508;49.422;2022-08-19T02:10:09;19.80;29.50
67194;DHT22;54121;53.508;49.422;2022-08-19T02:12:36;20.10;28.90
67194;DHT22;54121;53.508;49.422;2022-08-19T02:15:03;20.30;28.40
67194;DHT22;54121;53.508;49.422;2022-08-19T02:17:30;20.70;27.80
67194;DHT22;54121;53.508;49.422;2022-08-19T02:19:57;21.20;27.20
67194;DHT22;54121;53.508;49.422;2022-08-19T02:22:25;21.10;26.90
67194;DHT22;54121;53.508;49.422;2022-08-19T02:24:52;21.70;26.20
67194;DHT22;54121;53.508;49.422;2022-08-19T02:27:19;21.90;25.90
67194;DHT22;54121;53.508;49.422;2022-08-19T02:29:47;22.40;24.80
67194;DHT22;54121;53.508;49.422;2022-08-19T02:32:14;22.70;24.30
67194;DHT22;54121;53.508;49.422;2022-08-19T02:34:41;22.90;24.10
67194;DHT22;54121;53.508;49.422;2022-08-19T02:37:07;23.30;23.50
67194;DHT22;54121;53.508;49.422;2022-08-19T02:39:56;23.20;23.50
67194;DHT22;54121;53.508;49.422;2022-08-19T02:42:23;23.10;23.60
67194;DHT22;54121;53.508;49.422;2022-08-19T02:44:50;23.60;23.20
67194;DHT22;54121;53.508;49.422;2022-08-19T02:47:18;24.20;22.60
67194;DHT22;54121;53.508;49.422;2022-08-19T02:49:45;24.30;22.00
67194;DHT22;54121;53.508;49.422;2022-08-19T02:52:12;24.60;21.60
67194;DHT22;54121;53.508;49.422;2022-08-19T02:54:38;24.80;21.50
67194;DHT22;54121;53.508;49.422;2022-08-19T02:57:05;25.30;20.90
67194;DHT22;54121;53.508;49.422;2022-08-19T02:59:32;25.70;20.50
67194;DHT22;54121;53.508;49.422;2022-08-19T03:01:59;25.90;20.20
67194;DHT22;54121;53.508;49.422;2022-08-19T03:04:25;26.10;19.90
67194;DHT22;54121;53.508;49.422;2022-08-19T03:06:52;26.30;19.50
67194;DHT22;54121;53.508;49.422;2022-08-19T03:09:20;26.50;19.40
67194;DHT22;54121;53.508;49.422;2022-08-19T03:11:46;26.80;19.10
67194;DHT22;54121;53.508;49.422;2022-08-19T03:14:13;26.70;19.00
67194;DHT22;54121;53.508;49.422;2022-08-19T03:16:46;27.20;18.60
67194;DHT22;54121;53.508;49.422;2022-08-19T03:19:13;27.70;18.50
67194;DHT22;54121;53.508;49.422;2022-08-19T03:21:39;28.60;17.50
67194;DHT22;54121;53.508;49.422;2022-08-19T03:24:08;28.60;18.10
67194;DHT22;54121;53.508;49.422;2022-08-19T03:26:38;28.60;17.40
67194;DHT22;54121;53.508;49.422;2022-08-19T03:29:05;29.00;17.20
67194;DHT22;54121;53.508;49.422;2022-08-19T03:31:32;29.40;16.90
67194;DHT22;54121;53.508;49.422;2022-08-19T03:33:59;29.50;16.70
67194;DHT22;54121;53.508;49.422;2022-08-19T03:36:26;29.90;16.40
67194;DHT22;54121;53.508;49.422;2022-08-19T03:38:56;29.90;16.50
67194;DHT22;54121;53.508;49.422;2022-08-19T03:41:29;30.10;16.20
67194;DHT22;54121;53.508;49.422;2022-08-19T03:43:57;30.20;16.40
67194;DHT22;54121;53.508;49.422;2022-08-19T03:46:27;30.40;16.20
67194;DHT22;54121;53.508;49.422;2022-08-19T03:48:55;30.60;16.20
67194;DHT22;54121;53.508;49.422;2022-08-19T03:51:28;31.60;15.50
67194;DHT22;54121;53.508;49.422;2022-08-19T03:53:59;32.10;15.00
67194;DHT22;54121;53.508;49.422;2022-08-19T03:56:26;32.00;15.10
67194;DHT22;54121;53.508;49.422;2022-08-19T03:58:54;31.70;15.20
67194;DHT22;54121;53.508;49.422;2022-08-19T04:01:24;32.70;14.50
67194;DHT22;54121;53.508;49.422;2022-08-19T04:03:53;32.60;14.40
67194;DHT22;54121;53.508;49.422;2022-08-19T04:06:25;32.60;14.50
67194;DHT22;54121;53.508;49.422;2022-08-19T04:08:53;32.60;14.60
67194;DHT22;54121;53.508;49.422;2022-08-19T04:11:23;32.50;14.70
67194;DHT22;54121;53.508;49.422;2022-08-19T04:13:51;32.80;14.60
67194;DHT22;54121;53.508;49.422;2022-08-19T04:16:19;33.10;14.40
67194;DHT22;54121;53.508;49.422;2022-08-19T04:18:47;32.80;14.90
67194;DHT22;54121;53.508;49.422;2022-08-19T04:21:19;33.50;14.40
67194;DHT22;54121;53.508;49.422;2022-08-19T04:23:47;34.00;14.10
67194;DHT22;54121;53.508;49.422;2022-08-19T04:26:15;34.00;14.00
67194;DHT22;54121;53.508;49.422;2022-08-19T04:28:43;34.90;13.40
67194;DHT22;54121;53.508;49.422;2022-08-19T04:31:21;34.50;14.60
67194;DHT22;54121;53.508;49.422;2022-08-19T04:33:48;34.80;13.30
67194;DHT22;54121;53.508;49.422;2022-08-19T04:36:24;34.70;13.00
67194;DHT22;54121;53.508;49.422;2022-08-19T04:38:58;34.80;13.20
67194;DHT22;54121;53.508;49.422;2022-08-19T04:41:25;34.60;13.30
67194;DHT22;54121;53.508;49.422;2022-08-19T04:44:11;34.60;13.40
67194;DHT22;54121;53.508;49.422;2022-08-19T04:46:38;35.20;13.10
67194;DHT22;54121;53.508;49.422;2022-08-19T04:49:06;35.10;12.90
67194;DHT22;54121;53.508;49.422;2022-08-19T04:51:33;35.30;13.00
67194;DHT22;54121;53.508;49.422;2022-08-19T04:54:01;36.50;12.30
67194;DHT22;54121;53.508;49.422;2022-08-19T04:56:28;36.20;12.20
67194;DHT22;54121;53.508;49.422;2022-08-19T04:58:56;35.90;12.50
67194;DHT22;54121;53.508;49.422;2022-08-19T05:01:25;36.50;12.20
67194;DHT22;54121;53.508;49.422;2022-08-19T05:03:52;35.90;12.20
67194;DHT22;54121;53.508;49.422;2022-08-19T05:06:20;36.90;11.70
67194;DHT22;54121;53.508;49.422;2022-08-19T05:08:48;36.40;12.00
67194;DHT22;54121;53.508;49.422;2022-08-19T05:11:17;36.80;11.60
67194;DHT22;54121;53.508;49.422;2022-08-19T05:13:44;36.20;12.20
67194;DHT22;54121;53.508;49.422;2022-08-19T05:16:12;36.30;12.00
67194;DHT22;54121;53.508;49.422;2022-08-19T05:18:40;36.50;11.80
67194;DHT22;54121;53.508;49.422;2022-08-19T05:21:26;36.90;11.60
67194;DHT22;54121;53.508;49.422;2022-08-19T05:24:11;36.20;12.20
67194;DHT22;54121;53.508;49.422;2022-08-19T05:26:40;36.20;12.10
67194;DHT22;54121;53.508;49.422;2022-08-19T05:29:08;37.00;12.00
67194;DHT22;54121;53.508;49.422;2022-08-19T05:31:36;37.40;11.50
67194;DHT22;54121;53.508;49.422;2022-08-19T05:34:03;37.50;11.40
67194;DHT22;54121;53.508;49.422;2022-08-19T05:36:35;37.70;11.00
67194;DHT22;54121;53.508;49.422;2022-08-19T05:39:06;38.00;11.10
67194;DHT22;54121;53.508;49.422;2022-08-19T05:41:33;37.90;11.00
67194;DHT22;54121;53.508;49.422;2022-08-19T05:44:04;37.50;11.10
67194;DHT22;54121;53.508;49.422;2022-08-19T05:46:39;37.50;11.20
67194;DHT22;54121;53.508;49.422;2022-08-19T05:49:06;37.60;11.50
67194;DHT22;54121;53.508;49.422;2022-08-19T05:51:35;37.30;11.10
67194;DHT22;54121;53.508;49.422;2022-08-19T05:54:04;38.00;11.30
67194;DHT22;54121;53.508;49.422;2022-08-19T05:56:32;38.20;10.90
67194;DHT22;54121;53.508;49.422;2022-08-19T05:59:02;38.10;11.80
67194;DHT22;54121;53.508;49.422;2022-08-19T06:01:30;38.20;10.60
67194;DHT22;54121;53.508;49.422;2022-08-19T06:03:56;38.10;10.60
67194;DHT22;54121;53.508;49.422;2022-08-19T06:06:23;38.50;10.40
67194;DHT22;54121;53.508;49.422;2022-08-19T06:08:50;38.00;10.80
67194;DHT22;54121;53.508;49.422;2022-08-19T06:11:31;38.10;10.90
67194;DHT22;54121;53.508;49.422;2022-08-19T06:14:07;37.80;11.20
67194;DHT22;54121;53.508;49.422;2022-08-19T06:16:36;37.70;11.20
67194;DHT22;54121;53.508;49.422;2022-08-19T06:19:07;37.80;11.20
67194;DHT22;54121;53.508;49.422;2022-08-19T06:21:36;38.30;10.70
67194;DHT22;54121;53.508;49.422;2022-08-19T06:24:06;37.60;11.50
67194;DHT22;54121;53.508;49.422;2022-08-19T06:26:35;38.00;11.40
67194;DHT22;54121;53.508;49.422;2022-08-19T06:29:07;38.50;10.90
67194;DHT22;54121;53.508;49.422;2022-08-19T06:31:35;38.50;10.40
67194;DHT22;54121;53.508;49.422;2022-08-19T06:34:03;38.90;10.50
67194;DHT22;54121;53.508;49.422;2022-08-19T06:36:36;38.70;10.40
67194;DHT22;54121;53.508;49.422;2022-08-19T06:39:08;38.10;10.90
67194;DHT22;54121;53.508;49.422;2022-08-19T06:41:38;38.00;11.10
67194;DHT22;54121;53.508;49.422;2022-08-19T06:44:05;38.10;11.20
67194;DHT22;54121;53.508;49.422;2022-08-19T06:46:32;37.30;11.50
67194;DHT22;54121;53.508;49.422;2022-08-19T06:48:59;37.70;11.40
67194;DHT22;54121;53.508;49.422;2022-08-19T06:51:26;37.90;11.20
67194;DHT22;54121;53.508;49.422;2022-08-19T06:53:54;37.40;11.40
67194;DHT22;54121;53.508;49.422;2022-08-19T06:56:29;37.50;11.20
67194;DHT22;54121;53.508;49.422;2022-08-19T06:59:04;37.20;11.30
67194;DHT22;54121;53.508;49.422;2022-08-19T07:01:37;37.70;11.10
67194;DHT22;54121;53.508;49.422;2022-08-19T07:04:06;37.90;10.90
67194;DHT22;54121;53.508;49.422;2022-08-19T07:06:32;37.30;11.30
67194;DHT22;54121;53.508;49.422;2022-08-19T07:08:59;37.40;11.20
67194;DHT22;54121;53.508;49.422;2022-08-19T07:11:26;37.50;11.10
67194;DHT22;54121;53.508;49.422;2022-08-19T07:13:53;36.20;11.90
67194;DHT22;54121;53.508;49.422;2022-08-19T07:16:21;35.90;13.50
67194;DHT22;54121;53.508;49.422;2022-08-19T07:18:49;36.20;12.40
67194;DHT22;54121;53.508;49.422;2022-08-19T07:21:22;36.70;12.10
67194;DHT22;54121;53.508;49.422;2022-08-19T07:23:50;36.90;11.80
67194;DHT22;54121;53.508;49.422;2022-08-19T07:26:29;37.10;11.70
67194;DHT22;54121;53.508;49.422;2022-08-19T07:28:56;37.40;11.40
67194;DHT22;54121;53.508;49.422;2022-08-19T07:31:25;37.30;11.70
67194;DHT22;54121;53.508;49.422;2022-08-19T07:33:54;36.90;12.00
67194;DHT22;54121;53.508;49.422;2022-08-19T07:36:26;37.30;11.90
67194;DHT22;54121;53.508;49.422;2022-08-19T07:38:57;37.20;11.60
67194;DHT22;54121;53.508;49.422;2022-08-19T07:41:25;37.70;11.20
67194;DHT22;54121;53.508;49.422;2022-08-19T07:43:54;37.40;11.30
67194;DHT22;54121;53.508;49.422;2022-08-19T07:46:21;37.30;11.30
67194;DHT22;54121;53.508;49.422;2022-08-19T07:48:49;37.70;11.30
67194;DHT22;54121;53.508;49.422;2022-08-19T07:51:19;37.80;11.30
67194;DHT22;54121;53.508;49.422;2022-08-19T07:53:47;37.70;11.10
67194;DHT22;54121;53.508;49.422;2022-08-19T07:56:14;37.70;11.40
67194;DHT22;54121;53.508;49.422;2022-08-19T07:58:43;38.20;11.10
67194;DHT22;54121;53.508;49.422;2022-08-19T08:01:16;37.60;11.40
67194;DHT22;54121;53.508;49.422;2022-08-19T08:03:43;37.50;10.90
67194;DHT22;54121;53.508;49.422;2022-08-19T08:06:28;37.80;11.00
67194;DHT22;54121;53.508;49.422;2022-08-19T08:09:17;37.70;10.80
67194;DHT22;54121;53.508;49.422;2022-08-19T08:11:53;37.80;10.80
67194;DHT22;54121;53.508;49.422;2022-08-19T08:14:31;37.10;10.80
67194;DHT22;54121;53.508;49.422;2022-08-19T08:16:59;37.20;11.40
67194;DHT22;54121;53.508;49.422;2022-08-19T08:19:27;37.30;11.20
67194;DHT22;54121;53.508;49.422;2022-08-19T08:21:56;36.80;11.40
67194;DHT22;54121;53.508;49.422;2022-08-19T08:24:24;37.00;11.60
67194;DHT22;54121;53.508;49.422;2022-08-19T08:26:51;36.40;11.60
67194;DHT22;54121;53.508;49.422;2022-08-19T08:29:17;36.50;11.70
67194;DHT22;54121;53.508;49.422;2022-08-19T08:31:46;36.40;11.60
67194;DHT22;54121;53.508;49.422;2022-08-19T08:34:14;36.40;11.80
67194;DHT22;54121;53.508;49.422;2022-08-19T08:36:44;36.60;11.70
67194;DHT22;54121;53.508;49.422;2022-08-19T08:39:17;36.80;11.40
67194;DHT22;54121;53.508;49.422;2022-08-19T08:47:01;36.20;11.30
67194;DHT22;54121;53.508;49.422;2022-08-19T08:49:41;36.70;11.10
67194;DHT22;54121;53.508;49.422;2022-08-19T08:52:30;36.50;10.90
67194;DHT22;54121;53.508;49.422;2022-08-19T08:54:59;36.30;11.20
67194;DHT22;54121;53.508;49.422;2022-08-19T09:00:22;36.50;11.50
67194;DHT22;54121;53.508;49.422;2022-08-19T09:02:48;36.80;11.10
67194;DHT22;54121;53.508;49.422;2022-08-19T09:05:15;36.90;10.90
67194;DHT22;54121;53.508;49.422;2022-08-19T09:08:04;36.80;11.00
67194;DHT22;54121;53.508;49.422;2022-08-19T09:10:49;36.80;10.90
67194;DHT22;54121;53.508;49.422;2022-08-19T09:16:22;36.90;11.00
67194;DHT22;54121;53.508;49.422;2022-08-19T09:18:56;37.10;11.00
67194;DHT22;54121;53.508;49.422;2022-08-19T09:21:24;37.40;10.20
67194;DHT22;54121;53.508;49.422;2022-08-19T09:23:52;37.40;10.40
67194;DHT22;54121;53.508;49.422;2022-08-19T09:26:22;37.40;10.30
67194;DHT22;54121;53.508;49.422;2022-08-19T09:28:51;37.70;10.30
67194;DHT22;54121;53.508;49.422;2022-08-19T09:31:22;37.80;10.00
67194;DHT22;54121;53.508;49.422;2022-08-19T09:33:50;38.20;9.50
67194;DHT22;54121;53.508;49.422;2022-08-19T09:36:19;38.10;9.70
67194;DHT22;54121;53.508;49.422;2022-08-19T09:38:46;37.70;9.70
67194;DHT22;54121;53.508;49.422;2022-08-19T09:41:16;38.10;9.70
67194;DHT22;54121;53.508;49.422;2022-08-19T09:43:45;38.60;9.50
67194;DHT22;54121;53.508;49.422;2022-08-19T09:46:13;38.30;9.40
67194;DHT22;54121;53.508;49.422;2022-08-19T09:48:40;38.20;9.60
67194;DHT22;54121;53.508;49.422;2022-08-19T09:51:12;38.70;9.40
67194;DHT22;54121;53.508;49.422;2022-08-19T09:53:45;38.80;9.30
67194;DHT22;54121;53.508;49.422;2022-08-19T09:56:12;38.80;9.00
67194;DHT22;54121;53.508;49.422;2022-08-19T09:58:40;38.30;9.20
67194;DHT22;54121;53.508;49.422;2022-08-19T10:01:07;38.80;8.80
67194;DHT22;54121;53.508;49.422;2022-08-19T10:03:35;38.90;8.80
67194;DHT22;54121;53.508;49.422;2022-08-19T10:06:04;39.20;8.50
67194;DHT22;54121;53.508;49.422;2022-08-19T10:08:35;39.50;8.20
67194;DHT22;54121;53.508;49.422;2022-08-19T10:11:04;39.20;8.20
67194;DHT22;54121;53.508;49.422;2022-08-19T10:13:31;40.00;7.80
67194;DHT22;54121;53.508;49.422;2022-08-19T10:16:07;39.80;8.00
67194;DHT22;54121;53.508;49.422;2022-08-19T10:18:35;39.70;7.70
67194;DHT22;54121;53.508;49.422;2022-08-19T10:21:13;40.00;7.70
67194;DHT22;54121;53.508;49.422;2022-08-19T10:23:46;39.90;7.60
67194;DHT22;54121;53.508;49.422;2022-08-19T10:26:19;40.50;7.50
67194;DHT22;54121;53.508;49.422;2022-08-19T10:28:46;40.50;7.10
67194;DHT22;54121;53.508;49.422;2022-08-19T10:31:16;40.30;7.10
67194;DHT22;54121;53.508;49.422;2022-08-19T10:33:43;40.50;6.60
67194;DHT22;54121;53.508;49.422;2022-08-19T10:36:14;40.50;6.40
67194;DHT22;54121;53.508;49.422;2022-08-19T10:38:41;40.00;6.70
67194;DHT22;54121;53.508;49.422;2022-08-19T10:41:16;39.50;7.00
67194;DHT22;54121;53.508;49.422;2022-08-19T10:43:42;39.50;7.10
67194;DHT22;54121;53.508;49.422;2022-08-19T10:46:13;39.70;7.30
67194;DHT22;54121;53.508;49.422;2022-08-19T10:48:41;40.10;7.00
67194;DHT22;54121;53.508;49.422;2022-08-19T10:51:09;40.00;7.00
67194;DHT22;54121;53.508;49.422;2022-08-19T10:53:54;40.50;6.70
67194;DHT22;54121;53.508;49.422;2022-08-19T10:56:25;40.70;6.50
67194;DHT22;54121;53.508;49.422;2022-08-19T10:59:10;40.70;6.40
67194;DHT22;54121;53.508;49.422;2022-08-19T11:01:41;40.70;6.60
67194;DHT22;54121;53.508;49.422;2022-08-19T11:04:08;40.80;6.60
67194;DHT22;54121;53.508;49.422;2022-08-19T11:06:37;41.30;6.00
67194;DHT22;54121;53.508;49.422;2022-08-19T11:09:04;40.90;6.30
67194;DHT22;54121;53.508;49.422;2022-08-19T11:11:32;40.80;6.20
67194;DHT22;54121;53.508;49.422;2022-08-19T11:13:58;41.10;6.10
67194;DHT22;54121;53.508;49.422;2022-08-19T11:16:26;41.40;6.00
67194;DHT22;54121;53.508;49.422;2022-08-19T11:18:58;41.60;6.00
67194;DHT22;54121;53.508;49.422;2022-08-19T11:21:43;41.80;5.70
67194;DHT22;54121;53.508;49.422;2022-08-19T11:24:15;42.00;6.00
67194;DHT22;54121;53.508;49.422;2022-08-19T11:26:43;41.70;5.50
67194;DHT22;54121;53.508;49.422;2022-08-19T11:29:11;42.30;5.60
67194;DHT22;54121;53.508;49.422;2022-08-19T11:31:42;42.20;5.20
67194;DHT22;54121;53.508;49.422;2022-08-19T11:34:11;42.20;5.30
67194;DHT22;54121;53.508;49.422;2022-08-19T11:36:40;41.80;5.00
67194;DHT22;54121;53.508;49.422;2022-08-19T11:39:08;41.60;5.10
67194;DHT22;54121;53.508;49.422;2022-08-19T11:41:35;42.30;4.90
67194;DHT22;54121;53.508;49.422;2022-08-19T11:44:02;42.50;5.00
67194;DHT22;54121;53.508;49.422;2022-08-19T11:46:30;42.60;5.10
67194;DHT22;54121;53.508;49.422;2022-08-19T11:48:58;43.00;4.50
67194;DHT22;54121;53.508;49.422;2022-08-19T11:51:30;43.20;4.70
67194;DHT22;54121;53.508;49.422;2022-08-19T11:53:58;43.50;4.30
67194;DHT22;54121;53.508;49.422;2022-08-19T11:56:26;43.00;4.30
67194;DHT22;54121;53.508;49.422;2022-08-19T11:58:54;42.40;4.70
67194;DHT22;54121;53.508;49.422;2022-08-19T12:01:24;43.10;4.60
67194;DHT22;54121;53.508;49.422;2022-08-19T12:03:53;43.10;4.60
67194;DHT22;54121;53.508;49.422;2022-08-19T12:06:23;43.10;4.30
67194;DHT22;54121;53.508;49.422;2022-08-19T12:08:56;42.70;4.10
67194;DHT22;54121;53.508;49.422;2022-08-19T12:11:23;43.30;3.60
67194;DHT22;54121;53.508;49.422;2022-08-19T12:13:50;43.30;3.40
67194;DHT22;54121;53.508;49.422;2022-08-19T12:16:19;42.90;3.70
67194;DHT22;54121;53.508;49.422;2022-08-19T12:18:45;42.50;4.20
67194;DHT22;54121;53.508;49.422;2022-08-19T12:21:17;43.00;4.10
67194;DHT22;54121;53.508;49.422;2022-08-19T12:23:44;42.30;4.00
67194;DHT22;54121;53.508;49.422;2022-08-19T12:26:11;42.00;4.30
67194;DHT22;54121;53.508;49.422;2022-08-19T12:28:38;42.10;4.20
67194;DHT22;54121;53.508;49.422;2022-08-19T12:31:05;43.00;3.90
67194;DHT22;54121;53.508;49.422;2022-08-19T12:33:32;42.50;4.10
67194;DHT22;54121;53.508;49.422;2022-08-19T12:36:03;42.30;4.00
67194;DHT22;54121;53.508;49.422;2022-08-19T12:38:32;42.00;4.50
67194;DHT22;54121;53.508;49.422;2022-08-19T12:40:59;41.80;5.30
67194;DHT22;54121;53.508;49.422;2022-08-19T12:43:25;42.40;4.30
67194;DHT22;54121;53.508;49.422;2022-08-19T12:45:52;42.20;4.10
67194;DHT22;54121;53.508;49.422;2022-08-19T12:48:18;42.20;4.00
67194;DHT22;54121;53.508;49.422;2022-08-19T12:50:45;42.20;4.40
67194;DHT22;54121;53.508;49.422;2022-08-19T12:53:13;42.80;4.20
67194;DHT22;54121;53.508;49.422;2022-08-19T12:55:40;42.30;4.40
67194;DHT22;54121;53.508;49.422;2022-08-19T12:58:07;42.60;4.10
67194;DHT22;54121;53.508;49.422;2022-08-19T13:00:33;43.00;4.00
67194;DHT22;54121;53.508;49.422;2022-08-19T13:03:00;43.10;4.00
67194;DHT22;54121;53.508;49.422;2022-08-19T13:05:29;42.40;4.20
67194;DHT22;54121;53.508;49.422;2022-08-19T13:07:57;42.10;4.60
67194;DHT22;54121;53.508;49.422;2022-08-19T13:10:31;42.30;4.50
67194;DHT22;54121;53.508;49.422;2022-08-19T13:13:06;42.10;4.70
67194;DHT22;54121;53.508;49.422;2022-08-19T13:15:37;42.40;4.30
67194;DHT22;54121;53.508;49.422;2022-08-19T13:18:07;42.20;4.00
67194;DHT22;54121;53.508;49.422;2022-08-19T13:20:36;41.80;4.60
67194;DHT22;54121;53.508;49.422;2022-08-19T13:23:03;40.90;4.80
67194;DHT22;54121;53.508;49.422;2022-08-19T13:25:30;41.40;4.40
67194;DHT22;54121;53.508;49.422;2022-08-19T13:27:56;41.80;4.40
67194;DHT22;54121;53.508;49.422;2022-08-19T13:30:23;41.40;4.50
67194;DHT22;54121;53.508;49.422;2022-08-19T13:33:08;41.60;4.40
67194;DHT22;54121;53.508;49.422;2022-08-19T13:35:47;41.20;4.60
67194;DHT22;54121;53.508;49.422;2022-08-19T13:38:17;41.70;4.50
67194;DHT22;54121;53.508;49.422;2022-08-19T13:40:44;42.00;4.40
67194;DHT22;54121;53.508;49.422;2022-08-19T13:43:12;41.30;4.30
67194;DHT22;54121;53.508;49.422;2022-08-19T13:45:39;41.40;4.40
67194;DHT22;54121;53.508;49.422;2022-08-19T13:48:07;40.90;4.70
67194;DHT22;54121;53.508;49.422;2022-08-19T13:50:41;41.40;4.60
67194;DHT22;54121;53.508;49.422;2022-08-19T13:53:12;41.40;4.50
67194;DHT22;54121;53.508;49.422;2022-08-19T13:55:40;41.30;4.50
67194;DHT22;54121;53.508;49.422;2022-08-19T13:58:07;41.00;4.50
67194;DHT22;54121;53.508;49.422;2022-08-19T14:00:37;41.50;4.30
67194;DHT22;54121;53.508;49.422;2022-08-19T14:03:04;41.30;4.40
67194;DHT22;54121;53.508;49.422;2022-08-19T14:05:32;40.90;4.50
67194;DHT22;54121;53.508;49.422;2022-08-19T14:07:58;41.60;4.40
67194;DHT22;54121;53.508;49.422;2022-08-19T14:10:26;41.60;4.30
67194;DHT22;54121;53.508;49.422;2022-08-19T14:12:55;41.00;4.50
67194;DHT22;54121;53.508;49.422;2022-08-19T14:15:24;41.10;4.30
67194;DHT22;54121;53.508;49.422;2022-08-19T14:17:51;40.90;4.60
67194;DHT22;54121;53.508;49.422;2022-08-19T14:20:18;41.60;4.10
67194;DHT22;54121;53.508;49.422;2022-08-19T14:22:46;41.50;5.10
67194;DHT22;54121;53.508;49.422;2022-08-19T14:25:18;40.50;4.50
67194;DHT22;54121;53.508;49.422;2022-08-19T14:27:45;40.80;4.60
67194;DHT22;54121;53.508;49.422;2022-08-19T14:30:13;40.50;4.60
67194;DHT22;54121;53.508;49.422;2022-08-19T14:32:41;40.90;4.30
67194;DHT22;54121;53.508;49.422;2022-08-19T14:35:10;41.30;4.30
67194;DHT22;54121;53.508;49.422;2022-08-19T14:37:39;41.00;4.40
67194;DHT22;54121;53.508;49.422;2022-08-19T14:40:06;40.70;4.60
67194;DHT22;54121;53.508;49.422;2022-08-19T14:42:33;40.40;4.60
67194;DHT22;54121;53.508;49.422;2022-08-19T14:45:00;40.50;4.40
67194;DHT22;54121;53.508;49.422;2022-08-19T14:47:27;39.80;4.80
67194;DHT22;54121;53.508;49.422;2022-08-19T14:49:54;40.10;4.80
67194;DHT22;54121;53.508;49.422;2022-08-19T14:52:20;39.40;5.00
67194;DHT22;54121;53.508;49.422;2022-08-19T14:54:47;39.70;5.10
67194;DHT22;54121;53.508;49.422;2022-08-19T14:57:15;39.00;5.20
67194;DHT22;54121;53.508;49.422;2022-08-19T14:59:43;38.80;5.30
67194;DHT22;54121;53.508;49.422;2022-08-19T15:02:10;38.60;5.60
67194;DHT22;54121;53.508;49.422;2022-08-19T15:04:37;38.50;5.60
67194;DHT22;54121;53.508;49.422;2022-08-19T15:07:05;37.90;5.90
67194;DHT22;54121;53.508;49.422;2022-08-19T15:09:32;37.60;6.40
67194;DHT22;54121;53.508;49.422;2022-08-19T15:12:00;37.30;6.60
67194;DHT22;54121;53.508;49.422;2022-08-19T15:14:28;37.10;6.70
67194;DHT22;54121;53.508;49.422;2022-08-19T15:17:04;37.10;6.60
67194;DHT22;54121;53.508;49.422;2022-08-19T15:19:32;36.50;6.90
67194;DHT22;54121;53.508;49.422;2022-08-19T15:22:00;36.50;7.30
67194;DHT22;54121;53.508;49.422;2022-08-19T15:24:27;36.30;7.40
67194;DHT22;54121;53.508;49.422;2022-08-19T15:26:54;36.00;7.50
67194;DHT22;54121;53.508;49.422;2022-08-19T15:29:22;35.60;8.10
67194;DHT22;54121;53.508;49.422;2022-08-19T15:31:53;35.00;8.50
67194;DHT22;54121;53.508;49.422;2022-08-19T15:34:24;35.20;9.30
67194;DHT22;54121;53.508;49.422;2022-08-19T15:36:54;35.10;8.50
67194;DHT22;54121;53.508;49.422;2022-08-19T15:39:20;35.30;8.20
67194;DHT22;54121;53.508;49.422;2022-08-19T15:41:47;34.50;8.70
67194;DHT22;54121;53.508;49.422;2022-08-19T15:44:17;34.60;8.80
67194;DHT22;54121;53.508;49.422;2022-08-19T15:46:45;34.10;9.40